createdAt,value
2019-03-08T00:00:50.354Z,72.58
2019-03-08T00:05:55.535Z,71.88
2019-03-08T00:11:00.766Z,71.27
2019-03-08T00:16:05.952Z,70.93
2019-03-08T00:21:11.131Z,70.94
2019-03-08T00:26:17.088Z,70.89
2019-03-08T00:31:22.600Z,71.91
2019-03-08T00:36:28.382Z,71.51
2019-03-08T00:41:33.619Z,71.27
2019-03-08T00:46:38.799Z,70.25
2019-03-08T00:51:44.363Z,70.34
2019-03-08T00:56:50.512Z,69.11
2019-03-08T01:01:55.788Z,69.68
2019-03-08T01:07:00.974Z,69.72
2019-03-08T01:12:06.175Z,69.14
2019-03-08T01:17:11.745Z,69.88
2019-03-08T01:22:17.302Z,70.69
2019-03-08T01:27:22.624Z,70.60
2019-03-08T01:32:28.182Z,70.80
2019-03-08T01:37:33.353Z,71.57
2019-03-08T01:42:38.553Z,71.31
2019-03-08T01:47:45.154Z,71.01
2019-03-08T01:52:50.641Z,70.75
2019-03-08T01:57:56.096Z,71.32
2019-03-08T02:03:06.648Z,71.32
2019-03-08T02:08:11.923Z,71.67
2019-03-08T02:13:17.486Z,71.50
2019-03-08T02:18:22.800Z,70.86
2019-03-08T02:23:27.976Z,70.68
2019-03-08T02:28:33.266Z,70.68
2019-03-08T02:33:38.915Z,70.39
2019-03-08T02:38:44.369Z,69.93
2019-03-08T02:43:49.605Z,70.59
2019-03-08T02:48:56.183Z,70.23
2019-03-08T02:54:01.701Z,71.04
2019-03-08T02:59:06.912Z,71.30
2019-03-08T03:04:12.190Z,70.85
2019-03-08T03:09:17.371Z,70.81
2019-03-08T03:14:22.713Z,71.50
2019-03-08T03:19:28.455Z,71.26
2019-03-08T03:24:33.946Z,71.50
2019-03-08T03:29:40.190Z,71.51
2019-03-08T03:34:45.366Z,71.53
2019-03-08T03:39:50.577Z,70.78
2019-03-08T03:44:56.068Z,70.59
2019-03-08T03:50:02.412Z,70.73
2019-03-08T03:55:07.923Z,70.95
2019-03-08T04:00:14.906Z,69.46
2019-03-08T04:05:20.353Z,69.63
2019-03-08T04:10:25.899Z,70.67
2019-03-08T04:15:31.059Z,70.57
2019-03-08T04:20:36.234Z,70.67
2019-03-08T04:25:41.519Z,69.54
2019-03-08T04:30:47.234Z,68.81
2019-03-08T04:35:53.493Z,69.71
2019-03-08T04:40:59.001Z,69.94
2019-03-08T04:46:04.353Z,69.61
2019-03-08T04:51:09.796Z,67.84
2019-03-08T04:56:14.971Z,66.10
2019-03-08T05:01:20.172Z,64.41
2019-03-08T05:06:25.310Z,66.59
2019-03-08T05:11:30.951Z,67.85
2019-03-08T05:16:36.394Z,67.51
2019-03-08T05:21:42.212Z,68.56
2019-03-08T05:26:47.311Z,69.28
2019-03-08T05:31:53.267Z,68.11
2019-03-08T05:36:58.943Z,67.84
2019-03-08T05:42:04.568Z,67.04
2019-03-08T05:47:09.959Z,67.14
2019-03-08T05:52:15.440Z,66.39
2019-03-08T05:57:20.502Z,66.00
2019-03-08T06:02:25.582Z,65.26
2019-03-08T06:07:30.713Z,65.03
2019-03-08T06:12:35.844Z,64.80
2019-03-08T06:17:41.365Z,64.27
2019-03-08T06:22:46.855Z,64.58
2019-03-08T06:27:51.980Z,63.60
2019-03-08T06:32:58.983Z,63.63
2019-03-08T06:38:04.130Z,63.33
2019-03-08T06:43:09.298Z,62.59
2019-03-08T06:48:14.775Z,62.56
2019-03-08T06:53:21.092Z,63.28
2019-03-08T06:58:35.751Z,62.94
2019-03-08T07:03:41.191Z,63.54
2019-03-08T07:08:46.911Z,63.73
2019-03-08T07:13:53.453Z,63.66
2019-03-08T07:18:58.506Z,63.76
2019-03-08T07:24:26.128Z,64.37
2019-03-08T07:29:50.783Z,63.19
2019-03-08T07:35:18.124Z,63.36
2019-03-08T07:40:35.564Z,63.19
2019-03-08T07:45:57.101Z,63.44
2019-03-08T07:51:12.600Z,63.72
2019-03-08T07:56:35.567Z,64.66
2019-03-08T08:01:59.132Z,64.40
2019-03-08T08:07:17.010Z,63.26
2019-03-08T08:12:53.336Z,63.89
2019-03-08T08:18:11.804Z,64.02
2019-03-08T08:23:49.171Z,63.49
2019-03-08T08:29:08.348Z,64.64
2019-03-08T08:34:51.010Z,65.11
2019-03-08T08:40:30.593Z,64.66
2019-03-08T08:45:55.665Z,64.45
2019-03-08T08:51:24.596Z,64.10
2019-03-08T08:56:38.569Z,65.35
2019-03-08T09:02:05.741Z,64.94
2019-03-08T09:07:28.693Z,64.59
2019-03-08T09:12:41.507Z,63.04
2019-03-08T09:18:11.438Z,63.31
2019-03-08T09:23:25.756Z,62.88
2019-03-08T09:28:59.219Z,62.71
2019-03-08T09:34:18.098Z,62.25
2019-03-08T09:39:42.227Z,62.96
2019-03-08T09:45:01.774Z,63.20
2019-03-08T09:50:17.903Z,64.47
2019-03-08T09:55:45.355Z,66.12
2019-03-08T10:01:17.083Z,68.94
2019-03-08T10:06:44.177Z,74.85
2019-03-08T10:12:23.773Z,82.77
2019-03-08T10:17:38.871Z,86.94
2019-03-08T10:23:21.632Z,87.44
2019-03-08T10:28:45.807Z,86.90
2019-03-08T10:34:21.872Z,88.29
2019-03-08T10:39:38.973Z,87.87
2019-03-08T10:45:09.317Z,88.56
2019-03-08T10:50:38.085Z,88.79
2019-03-08T10:56:04.995Z,85.35
2019-03-08T11:01:28.482Z,85.62
2019-03-08T11:07:07.756Z,84.29
2019-03-08T11:12:28.700Z,83.59
2019-03-08T11:17:57.197Z,81.49
2019-03-08T11:23:09.622Z,76.67
2019-03-08T11:28:39.711Z,74.20
2019-03-08T11:33:52.595Z,71.68
2019-03-08T11:39:20.891Z,73.33
2019-03-08T11:44:38.229Z,74.15
2019-03-08T11:50:17.640Z,71.70
2019-03-08T11:55:54.442Z,72.35
2019-03-08T12:01:21.244Z,72.28
2019-03-08T12:06:48.831Z,73.42
2019-03-08T12:12:00.023Z,71.75
2019-03-08T12:17:22.172Z,71.11
2019-03-08T12:22:46.304Z,72.98
2019-03-08T12:28:07.089Z,71.63
2019-03-08T12:33:34.429Z,72.50
2019-03-08T12:38:50.578Z,70.51
2019-03-08T12:44:15.795Z,68.78
2019-03-08T12:49:32.624Z,67.95
2019-03-08T12:54:55.734Z,66.92
2019-03-08T13:00:19.959Z,67.50
2019-03-08T13:05:45.849Z,68.44
2019-03-08T13:10:52.129Z,66.83
2019-03-08T13:15:57.362Z,65.64
2019-03-08T13:21:02.977Z,63.82
2019-03-08T13:26:08.187Z,63.46
2019-03-08T13:31:15.385Z,62.20
2019-03-08T13:36:20.516Z,64.25
2019-03-08T13:41:25.652Z,64.12
2019-03-08T13:46:31.449Z,64.37
2019-03-08T13:51:36.643Z,65.15
2019-03-08T13:56:41.852Z,65.35
2019-03-08T14:01:47.017Z,64.62
2019-03-08T14:06:52.536Z,62.13
2019-03-08T14:11:58.102Z,62.33
2019-03-08T14:17:04.420Z,60.49
2019-03-08T14:22:09.637Z,63.45
2019-03-08T14:27:15.162Z,63.44
2019-03-08T14:32:25.388Z,64.56
2019-03-08T14:37:28.711Z,64.06
2019-03-08T14:42:46.154Z,61.95
2019-03-08T14:47:56.570Z,63.34
2019-03-08T14:53:01.776Z,56.64
2019-03-08T14:58:07.287Z,59.40
2019-03-08T15:03:13.619Z,61.56
2019-03-08T15:08:19.627Z,59.10
2019-03-08T15:13:25.790Z,57.68
2019-03-08T15:18:31.375Z,59.58
2019-03-08T15:23:39.272Z,60.28
2019-03-08T15:28:44.339Z,59.04
2019-03-08T15:33:49.725Z,59.81
2019-03-08T15:38:58.788Z,60.36
2019-03-08T15:44:04.658Z,60.75
2019-03-08T15:49:09.873Z,59.52
2019-03-08T15:54:15.007Z,60.45
2019-03-08T15:59:20.312Z,58.34
2019-03-08T16:04:25.572Z,57.47
2019-03-08T16:09:30.789Z,55.87
2019-03-08T16:14:36.313Z,54.94
2019-03-08T16:19:41.411Z,54.54
2019-03-08T16:24:47.544Z,55.58
2019-03-08T16:29:53.419Z,55.91
2019-03-08T16:34:58.491Z,56.07
2019-03-08T16:40:32.349Z,55.16
2019-03-08T16:46:02.139Z,56.23
2019-03-08T16:51:17.878Z,57.13
2019-03-08T16:56:51.169Z,57.51
2019-03-08T17:02:19.772Z,58.55
2019-03-08T17:07:43.141Z,59.44
2019-03-08T17:13:13.661Z,59.30
2019-03-08T17:18:39.171Z,58.51
2019-03-08T17:24:06.812Z,59.17
2019-03-08T17:29:16.694Z,59.96
2019-03-08T17:34:52.750Z,60.24
2019-03-08T17:40:28.073Z,59.93
2019-03-08T17:45:55.104Z,60.85
2019-03-08T17:51:30.865Z,61.66
2019-03-08T17:56:58.625Z,61.95
2019-03-08T18:02:28.937Z,61.75
2019-03-08T18:07:52.908Z,61.40
2019-03-08T18:13:35.820Z,61.75
2019-03-08T18:18:59.018Z,62.17
2019-03-08T18:24:23.964Z,63.35
2019-03-08T18:29:37.074Z,64.79
2019-03-08T18:34:59.960Z,65.32
2019-03-08T18:40:37.264Z,64.81
2019-03-08T18:46:00.044Z,66.00
2019-03-08T18:51:25.186Z,66.35
2019-03-08T18:56:49.334Z,65.91
2019-03-08T19:02:13.227Z,67.31
2019-03-08T19:07:56.140Z,69.62
2019-03-08T19:13:23.373Z,71.60
2019-03-08T19:18:57.101Z,72.99
2019-03-08T19:24:20.840Z,75.51
2019-03-08T19:29:46.626Z,76.15
2019-03-08T19:35:07.252Z,75.90
2019-03-08T19:40:18.740Z,75.79
2019-03-08T19:45:34.322Z,76.13
2019-03-08T19:51:01.941Z,76.79
2019-03-08T19:56:31.890Z,76.79
2019-03-08T20:01:48.650Z,76.22
2019-03-08T20:07:23.885Z,77.48
2019-03-08T20:12:41.141Z,77.53
2019-03-08T20:17:54.513Z,78.39
2019-03-08T20:23:30.273Z,78.99
2019-03-08T20:28:56.736Z,79.37
2019-03-08T20:34:19.148Z,78.85
2019-03-08T20:39:36.415Z,78.65
2019-03-08T20:45:03.581Z,78.61
2019-03-08T20:50:11.233Z,78.70
2019-03-08T20:55:16.415Z,78.29
2019-03-08T21:00:21.718Z,78.38
2019-03-08T21:05:27.154Z,78.44
2019-03-08T21:10:32.588Z,78.20
2019-03-08T21:15:38.024Z,78.85
2019-03-08T21:20:43.490Z,78.87
2019-03-08T21:25:48.728Z,78.75
2019-03-08T21:30:53.808Z,78.35
2019-03-08T21:36:00.110Z,78.66
2019-03-08T21:41:06.079Z,78.37
2019-03-08T21:46:11.279Z,78.35
2019-03-08T21:51:16.404Z,78.60
2019-03-08T21:56:21.810Z,78.68
2019-03-08T22:01:27.442Z,78.50
2019-03-08T22:06:32.555Z,78.55
2019-03-08T22:11:42.518Z,78.65
2019-03-08T22:16:48.511Z,78.23
2019-03-08T22:21:53.824Z,78.36
2019-03-08T22:26:59.254Z,78.17
2019-03-08T22:32:05.164Z,77.65
2019-03-08T22:37:10.294Z,77.31
2019-03-08T22:42:15.422Z,76.84
2019-03-08T22:47:20.685Z,76.27
2019-03-08T22:52:25.741Z,75.75
2019-03-08T22:57:31.567Z,75.66
2019-03-08T23:02:38.427Z,74.49
2019-03-08T23:07:43.698Z,73.84
2019-03-08T23:12:50.212Z,73.64
2019-03-08T23:17:56.348Z,73.68
2019-03-08T23:23:01.604Z,74.02
2019-03-08T23:28:21.426Z,74.93
2019-03-08T23:33:26.481Z,75.59
2019-03-08T23:38:31.617Z,76.10
2019-03-08T23:43:36.741Z,76.80
2019-03-08T23:48:41.861Z,77.20
2019-03-08T23:53:47.342Z,77.75
2019-03-08T23:58:52.558Z,78.30
